Orion — WCC9851 — position and weather

sailwx.info

Track history (hours):
 
Tides and Currents Weather Stations Pressure Air Temp Water Temp Dewpoint Dewpoint Depression Visibility Wind Speed Wind Dir Waves Ship Positions

Orion

Owner: CROSS LINK INC, SAN FRANCISCO, CA. More information available from US FCC via Universal Licensing System and Coast Guard Vessel Documentation Center.

Last reported at 2017-Oct-14 15:06 UTC. Time now 2017-Oct-19 11:17 UTC.
Position N 37°46' W 122°23'.

; draft 3.7 m.

Type: Tug. MMSI: 366969470.

Date/timePositionNaut miles runAvg speedWind from/ knotsBaromVisibWave heightAir tempDewpointWater temp
2017-Oct-14 15:06N 37°46' W 122°23'0 0.1
2017-Oct-14 15:00N 37°46' W 122°23'0 0.0
2017-Oct-13 07:07N 37°46' W 122°23'0 0.0
2017-Oct-13 07:00N 37°46' W 122°23'2 3.3
2017-Oct-13 06:30N 37°45' W 122°23'1 1.1
2017-Oct-13 06:00N 37°45' W 122°22'1 2.9
2017-Oct-13 05:30N 37°46' W 122°22'0 0.5
2017-Oct-13 05:00N 37°46' W 122°21'0 0.0
2017-Oct-13 04:30N 37°46' W 122°21'0 0.0
2017-Oct-13 04:01N 37°46' W 122°21'0 0.0
2017-Oct-13 03:31N 37°46' W 122°21'0 0.0
2017-Oct-13 03:01N 37°46' W 122°21'0 0.1
2017-Oct-13 02:31N 37°46' W 122°22'0 0.3
2017-Oct-13 02:01N 37°46' W 122°21'0 0.2
2017-Oct-13 01:31N 37°46' W 122°21'0 0.1
2017-Oct-13 01:00N 37°46' W 122°21'0 0.0
2017-Oct-13 00:31N 37°46' W 122°21'0 0.2
2017-Oct-13 00:00N 37°46' W 122°22'1 2.5
2017-Oct-12 23:30N 37°45' W 122°22'1 1.3
2017-Oct-12 23:00N 37°45' W 122°23'1 2.3
2017-Oct-12 22:30N 37°46' W 122°23'1 1.2
2017-Oct-12 22:00N 37°46' W 122°23'  
2017-Oct-07 23:02N 37°46' W 122°23'0 0.0
2017-Oct-07 23:00N 37°46' W 122°23'0 0.1
2017-Oct-07 22:30N 37°47' W 122°23'0 0.9
2017-Oct-07 22:00N 37°46' W 122°23'1 2.5
2017-Oct-07 21:30N 37°45' W 122°22'4 8.6
2017-Oct-07 21:00N 37°41' W 122°20'4 8.1
2017-Oct-07 20:31N 37°38' W 122°18'4 7.5
2017-Oct-07 20:00N 37°35' W 122°15'4 6.9
2017-Oct-07 19:29N 37°32' W 122°12'2 3.2
2017-Oct-07 19:01N 37°31' W 122°13'0 0.0
2017-Oct-07 18:30N 37°31' W 122°13'0 0.0
2017-Oct-07 18:00N 37°31' W 122°13'0 0.1
2017-Oct-07 17:30N 37°31' W 122°12'0 0.0
2017-Oct-07 17:00N 37°31' W 122°12'0 0.1
2017-Oct-07 16:30N 37°31' W 122°13'0 0.0
2017-Oct-07 16:00N 37°31' W 122°13'0 0.0
2017-Oct-07 15:30N 37°31' W 122°13'0 0.0
2017-Oct-07 14:54N 37°31' W 122°13'0 0.0
2017-Oct-07 14:30N 37°31' W 122°13'0 0.0
2017-Oct-07 13:53N 37°31' W 122°13'0 0.0
2017-Oct-07 13:30N 37°31' W 122°13'0 0.0
2017-Oct-07 13:00N 37°31' W 122°13'0 0.0
2017-Oct-07 12:27N 37°31' W 122°13'0 0.0
2017-Oct-07 12:00N 37°31' W 122°13'0 0.0
2017-Oct-07 11:30N 37°31' W 122°13'0 0.0
2017-Oct-07 11:01N 37°31' W 122°13'0 0.0
2017-Oct-07 10:31N 37°31' W 122°13'0 0.1
2017-Oct-07 10:01N 37°31' W 122°13'0 0.2
2017-Oct-07 09:28N 37°31' W 122°12'2 4.7
2017-Oct-07 08:59N 37°33' W 122°12'4 8.2
2017-Oct-07 08:30N 37°35' W 122°16'4 8.2
2017-Oct-07 08:01N 37°39' W 122°19'4 8.2
2017-Oct-07 07:31N 37°42' W 122°21'4 8.5
2017-Oct-07 07:00N 37°46' W 122°23'0 0.4
2017-Oct-07 06:30N 37°47' W 122°23'  
Track history (hours):
 
Tides and Currents Weather Stations Pressure Air Temp Water Temp Dewpoint Dewpoint Depression Visibility Wind Speed Wind Dir Waves Ship Positions

Orion

Owner: CROSS LINK INC, SAN FRANCISCO, CA. More information available from US FCC via Universal Licensing System and Coast Guard Vessel Documentation Center.

Last reported at 2017-Oct-14 15:06 UTC. Time now 2017-Oct-19 11:17 UTC.
Position N 37°46' W 122°23'.

; draft 3.7 m.

Type: Tug. MMSI: 366969470.

Date/timePositionNaut miles runAvg speedWind from/ knotsBaromVisibWave heightAir tempDewpointWater temp
2017-Oct-14 15:06N 37°46' W 122°23'0 0.1
2017-Oct-14 15:00N 37°46' W 122°23'0 0.0
2017-Oct-13 07:07N 37°46' W 122°23'0 0.0
2017-Oct-13 07:00N 37°46' W 122°23'2 3.3
2017-Oct-13 06:30N 37°45' W 122°23'1 1.1
2017-Oct-13 06:00N 37°45' W 122°22'1 2.9
2017-Oct-13 05:30N 37°46' W 122°22'0 0.5
2017-Oct-13 05:00N 37°46' W 122°21'0 0.0
2017-Oct-13 04:30N 37°46' W 122°21'0 0.0
2017-Oct-13 04:01N 37°46' W 122°21'0 0.0
2017-Oct-13 03:31N 37°46' W 122°21'0 0.0
2017-Oct-13 03:01N 37°46' W 122°21'0 0.1
2017-Oct-13 02:31N 37°46' W 122°22'0 0.3
2017-Oct-13 02:01N 37°46' W 122°21'0 0.2
2017-Oct-13 01:31N 37°46' W 122°21'0 0.1
2017-Oct-13 01:00N 37°46' W 122°21'0 0.0
2017-Oct-13 00:31N 37°46' W 122°21'0 0.2
2017-Oct-13 00:00N 37°46' W 122°22'1 2.5
2017-Oct-12 23:30N 37°45' W 122°22'1 1.3
2017-Oct-12 23:00N 37°45' W 122°23'1 2.3
2017-Oct-12 22:30N 37°46' W 122°23'1 1.2
2017-Oct-12 22:00N 37°46' W 122°23'  
2017-Oct-07 23:02N 37°46' W 122°23'0 0.0
2017-Oct-07 23:00N 37°46' W 122°23'0 0.1
2017-Oct-07 22:30N 37°47' W 122°23'0 0.9
2017-Oct-07 22:00N 37°46' W 122°23'1 2.5
2017-Oct-07 21:30N 37°45' W 122°22'4 8.6
2017-Oct-07 21:00N 37°41' W 122°20'4 8.1
2017-Oct-07 20:31N 37°38' W 122°18'4 7.5
2017-Oct-07 20:00N 37°35' W 122°15'4 6.9
2017-Oct-07 19:29N 37°32' W 122°12'2 3.2
2017-Oct-07 19:01N 37°31' W 122°13'0 0.0
2017-Oct-07 18:30N 37°31' W 122°13'0 0.0
2017-Oct-07 18:00N 37°31' W 122°13'0 0.1
2017-Oct-07 17:30N 37°31' W 122°12'0 0.0
2017-Oct-07 17:00N 37°31' W 122°12'0 0.1
2017-Oct-07 16:30N 37°31' W 122°13'0 0.0
2017-Oct-07 16:00N 37°31' W 122°13'0 0.0
2017-Oct-07 15:30N 37°31' W 122°13'0 0.0
2017-Oct-07 14:54N 37°31' W 122°13'0 0.0
2017-Oct-07 14:30N 37°31' W 122°13'0 0.0
2017-Oct-07 13:53N 37°31' W 122°13'0 0.0
2017-Oct-07 13:30N 37°31' W 122°13'0 0.0
2017-Oct-07 13:00N 37°31' W 122°13'0 0.0
2017-Oct-07 12:27N 37°31' W 122°13'0 0.0
2017-Oct-07 12:00N 37°31' W 122°13'0 0.0
2017-Oct-07 11:30N 37°31' W 122°13'0 0.0
2017-Oct-07 11:01N 37°31' W 122°13'0 0.0
2017-Oct-07 10:31N 37°31' W 122°13'0 0.1
2017-Oct-07 10:01N 37°31' W 122°13'0 0.2
2017-Oct-07 09:28N 37°31' W 122°12'2 4.7
2017-Oct-07 08:59N 37°33' W 122°12'4 8.2
2017-Oct-07 08:30N 37°35' W 122°16'4 8.2
2017-Oct-07 08:01N 37°39' W 122°19'4 8.2
2017-Oct-07 07:31N 37°42' W 122°21'4 8.5
2017-Oct-07 07:00N 37°46' W 122°23'0 0.4
2017-Oct-07 06:30N 37°47' W 122°23'  

Dump ship's entire track history